Terminal Aerodrome Forecast
Issued by NWS

Home | Current Version | Previous Version | Text Only | Print | Product List | Glossary On
Versions: 1 2 3 4 5 6 7 8 9 10 11 12 13 14 15 16
865
FTUS44 KMAF 211720
TAFFST
TAF
KFST 211720Z 2118/2218 12014KT P6SM SCT040
     FM212200 13017G25KT P6SM SCT050 BKN250
     FM220900 13012KT P6SM SCT150=

USA.gov is the U.S. government's official web portal to all federal, state and local government web resources and services.